createdAt,value
2022-12-08T00:01:18.450Z,68.24
2022-12-08T00:03:45.086Z,68.53
2022-12-08T00:06:33.975Z,68.36
2022-12-08T00:09:18.949Z,68.49
2022-12-08T00:11:46.845Z,68.74
2022-12-08T00:14:13.337Z,68.47
2022-12-08T00:16:40.037Z,68.58
2022-12-08T00:19:06.626Z,68.40
2022-12-08T00:21:33.267Z,68.27
2022-12-08T00:23:59.819Z,68.50
2022-12-08T00:26:26.335Z,68.59
2022-12-08T00:28:54.393Z,68.54
2022-12-08T00:31:20.944Z,68.23
2022-12-08T00:33:47.487Z,68.53
2022-12-08T00:36:14.699Z,68.13
2022-12-08T00:38:41.438Z,67.94
2022-12-08T00:41:12.074Z,68.61
2022-12-08T00:43:38.642Z,68.13
2022-12-08T00:46:06.664Z,67.85
2022-12-08T00:48:33.827Z,68.20
2022-12-08T00:51:00.328Z,68.25
2022-12-08T00:53:26.827Z,67.97
2022-12-08T00:55:53.557Z,68.29
2022-12-08T00:58:20.085Z,68.47
2022-12-08T01:00:46.600Z,68.44
2022-12-08T01:03:14.715Z,68.31
2022-12-08T01:05:41.349Z,68.69
2022-12-08T01:08:08.693Z,68.38
2022-12-08T01:10:37.119Z,68.47
2022-12-08T01:13:03.737Z,68.77
2022-12-08T01:15:30.336Z,68.15
2022-12-08T01:17:56.838Z,68.32
2022-12-08T01:20:24.830Z,68.56
2022-12-08T01:22:51.318Z,68.27
2022-12-08T01:25:18.168Z,68.59
2022-12-08T01:27:44.672Z,68.33
2022-12-08T01:30:12.099Z,68.85
2022-12-08T01:32:38.584Z,68.89
2022-12-08T01:35:05.572Z,69.01
2022-12-08T01:37:33.817Z,68.93
2022-12-08T01:40:00.310Z,68.33
2022-12-08T01:42:26.879Z,68.46
2022-12-08T01:44:55.200Z,68.47
2022-12-08T01:47:22.988Z,68.68
2022-12-08T01:49:49.586Z,68.87
2022-12-08T01:52:17.866Z,68.54
2022-12-08T01:54:49.205Z,69.03
2022-12-08T01:57:17.425Z,68.61
2022-12-08T01:59:46.722Z,68.33
2022-12-08T02:02:13.587Z,68.63
2022-12-08T02:04:40.146Z,68.51
2022-12-08T02:07:08.464Z,68.69
2022-12-08T02:09:35.380Z,68.68
2022-12-08T02:12:04.071Z,68.95
2022-12-08T02:14:30.728Z,68.88
2022-12-08T02:17:03.275Z,68.84
2022-12-08T02:19:42.517Z,69.12
2022-12-08T02:22:11.651Z,69.03
2022-12-08T02:24:40.536Z,68.77
2022-12-08T02:27:36.518Z,69.17
2022-12-08T02:30:18.596Z,68.48
2022-12-08T02:32:59.978Z,68.61
2022-12-08T02:35:30.046Z,68.61
2022-12-08T02:37:58.610Z,68.66
2022-12-08T02:40:29.060Z,68.69
2022-12-08T02:42:57.523Z,68.33
2022-12-08T02:45:26.055Z,68.36
2022-12-08T02:47:52.609Z,68.77
2022-12-08T02:50:19.189Z,68.60
2022-12-08T02:52:47.420Z,68.45
2022-12-08T02:55:26.336Z,68.91
2022-12-08T02:58:07.671Z,69.03
2022-12-08T03:00:38.876Z,68.87
2022-12-08T03:03:09.443Z,68.62
2022-12-08T03:05:51.024Z,68.52
2022-12-08T03:08:22.279Z,68.55
2022-12-08T03:10:52.435Z,68.56
2022-12-08T03:13:20.741Z,69.16
2022-12-08T03:15:49.643Z,69.04
2022-12-08T03:18:17.057Z,68.92
2022-12-08T03:20:45.201Z,68.94
2022-12-08T03:23:12.786Z,68.55
2022-12-08T03:25:43.428Z,68.62
2022-12-08T03:28:10.087Z,68.84
2022-12-08T03:30:39.262Z,68.80
2022-12-08T03:33:08.996Z,69.22
2022-12-08T03:35:37.722Z,68.42
2022-12-08T03:38:05.202Z,68.85
2022-12-08T03:40:31.886Z,68.82
2022-12-08T03:43:00.092Z,68.91
2022-12-08T03:45:26.827Z,68.99
2022-12-08T03:47:53.345Z,68.85
2022-12-08T03:50:19.855Z,68.91
2022-12-08T03:52:46.993Z,68.71
2022-12-08T03:55:13.826Z,68.86
2022-12-08T03:57:40.349Z,68.68
2022-12-08T04:00:09.896Z,68.43
2022-12-08T04:02:36.399Z,68.51
2022-12-08T04:05:02.986Z,68.70
2022-12-08T04:07:29.999Z,68.47
2022-12-08T04:09:56.486Z,68.78
2022-12-08T04:12:22.949Z,68.96
2022-12-08T04:14:49.509Z,68.84
2022-12-08T04:17:17.419Z,69.03
2022-12-08T04:19:43.917Z,69.05
2022-12-08T04:22:10.522Z,68.81
2022-12-08T04:24:37.021Z,69.47
2022-12-08T04:27:03.700Z,69.53
2022-12-08T04:29:30.302Z,69.81
2022-12-08T04:31:56.886Z,69.62
2022-12-08T04:34:24.813Z,69.85
2022-12-08T04:36:51.342Z,69.55
2022-12-08T04:39:17.842Z,69.65
2022-12-08T04:41:44.311Z,69.64
2022-12-08T04:44:10.841Z,69.85
2022-12-08T04:46:42.994Z,69.66
2022-12-08T04:49:10.037Z,69.92
2022-12-08T04:51:38.176Z,69.93
2022-12-08T04:54:04.930Z,69.55
2022-12-08T04:56:31.378Z,69.68
2022-12-08T04:58:57.857Z,69.62
2022-12-08T05:01:24.399Z,69.57
2022-12-08T05:03:50.948Z,69.42
2022-12-08T05:06:17.611Z,69.47
2022-12-08T05:08:45.778Z,69.67
2022-12-08T05:11:12.701Z,69.54
2022-12-08T05:13:39.737Z,69.47
2022-12-08T05:16:07.544Z,69.29
2022-12-08T05:18:34.805Z,69.43
2022-12-08T05:21:01.353Z,69.00
2022-12-08T05:23:27.910Z,69.25
2022-12-08T05:25:56.095Z,68.97
2022-12-08T05:31:09.665Z,69.14
2022-12-08T05:33:36.406Z,68.96
2022-12-08T05:36:02.978Z,69.19
2022-12-08T05:38:29.578Z,69.23
2022-12-08T05:40:57.433Z,69.35
2022-12-08T05:43:23.960Z,69.38
2022-12-08T05:45:50.564Z,69.44
2022-12-08T05:48:17.093Z,69.51
2022-12-08T05:50:45.867Z,69.68
2022-12-08T05:53:12.379Z,69.96
2022-12-08T05:55:38.885Z,69.61
2022-12-08T05:58:08.273Z,70.22
2022-12-08T06:00:34.897Z,70.51
2022-12-08T06:03:01.857Z,69.99
2022-12-08T06:05:28.442Z,70.34
2022-12-08T06:07:55.199Z,70.11
2022-12-08T06:10:21.766Z,69.91
2022-12-08T06:12:48.230Z,69.94
2022-12-08T06:15:16.276Z,69.83
2022-12-08T06:17:42.882Z,70.15
2022-12-08T06:20:09.817Z,69.93
2022-12-08T06:22:36.562Z,70.06
2022-12-08T06:25:06.052Z,70.03
2022-12-08T06:27:35.233Z,69.62
2022-12-08T06:30:02.249Z,69.65
2022-12-08T06:32:30.645Z,69.87
2022-12-08T06:34:57.226Z,69.45
2022-12-08T06:37:23.733Z,69.55
2022-12-08T06:39:50.480Z,69.48
2022-12-08T06:42:35.644Z,69.52
2022-12-08T06:45:02.167Z,68.97
2022-12-08T06:47:30.069Z,69.29
2022-12-08T06:49:56.548Z,68.83
2022-12-08T06:52:23.012Z,68.68
2022-12-08T06:54:49.527Z,69.06
2022-12-08T06:57:16.265Z,69.61
2022-12-08T06:59:42.832Z,68.98
2022-12-08T07:02:09.740Z,69.71
2022-12-08T07:04:37.853Z,69.46
2022-12-08T07:07:04.324Z,69.23
2022-12-08T07:09:30.918Z,69.54
2022-12-08T07:11:57.423Z,69.91
2022-12-08T07:14:24.868Z,69.84
2022-12-08T07:16:52.402Z,69.81
2022-12-08T07:19:19.161Z,69.49
2022-12-08T07:21:47.597Z,69.85
2022-12-08T07:24:14.156Z,69.62
2022-12-08T07:26:40.698Z,69.80
2022-12-08T07:29:07.431Z,70.12
2022-12-08T07:31:34.237Z,70.03
2022-12-08T07:34:00.867Z,70.35
2022-12-08T07:36:27.641Z,70.29
2022-12-08T07:38:55.581Z,69.67
2022-12-08T07:41:23.589Z,70.03
2022-12-08T07:43:50.651Z,69.68
2022-12-08T07:46:18.614Z,69.64
2022-12-08T07:48:46.204Z,70.34
2022-12-08T07:51:13.706Z,70.37
2022-12-08T07:53:42.690Z,70.01
2022-12-08T07:56:12.214Z,69.71
2022-12-08T07:58:39.126Z,68.48
2022-12-08T08:01:06.037Z,68.51
2022-12-08T08:03:33.201Z,68.39
2022-12-08T08:06:02.306Z,68.48
2022-12-08T08:08:28.862Z,68.56
2022-12-08T08:10:55.386Z,68.42
2022-12-08T08:13:23.278Z,67.66
2022-12-08T08:15:49.856Z,67.67
2022-12-08T08:18:16.433Z,67.66
2022-12-08T08:20:42.912Z,67.30
2022-12-08T08:23:09.456Z,67.09
2022-12-08T08:25:36.047Z,66.41
2022-12-08T08:28:02.913Z,66.19
2022-12-08T08:30:30.742Z,64.33
2022-12-08T08:32:57.226Z,62.48
2022-12-08T08:35:23.717Z,61.60
2022-12-08T08:37:50.298Z,61.18
2022-12-08T08:40:17.238Z,60.58
2022-12-08T08:42:43.754Z,61.37
2022-12-08T08:45:10.724Z,61.63
2022-12-08T08:47:38.976Z,61.26
2022-12-08T08:50:06.436Z,60.81
2022-12-08T08:52:33.198Z,60.96
2022-12-08T08:54:59.771Z,60.95
2022-12-08T08:57:26.628Z,60.86
2022-12-08T08:59:53.330Z,60.67
2022-12-08T09:02:20.262Z,59.60
2022-12-08T09:04:48.386Z,58.27
2022-12-08T09:07:15.667Z,58.79
2022-12-08T09:09:42.313Z,58.22
2022-12-08T09:12:08.950Z,57.18
2022-12-08T09:14:35.516Z,57.27
2022-12-08T09:17:02.031Z,57.75
2022-12-08T09:19:28.579Z,58.16
2022-12-08T09:21:56.559Z,57.30
2022-12-08T09:24:23.211Z,57.43
2022-12-08T09:26:49.819Z,56.43
2022-12-08T09:29:17.601Z,56.17
2022-12-08T09:31:44.253Z,55.48
2022-12-08T09:34:11.551Z,55.76
2022-12-08T09:36:38.087Z,54.13
2022-12-08T09:39:06.579Z,54.26
2022-12-08T09:41:40.402Z,55.07
2022-12-08T09:44:21.780Z,53.74
2022-12-08T09:46:51.160Z,53.96
2022-12-08T09:49:19.111Z,53.62
2022-12-08T09:51:46.147Z,52.04
2022-12-08T09:54:18.056Z,51.77
2022-12-08T09:56:44.573Z,50.33
2022-12-08T09:59:17.064Z,48.88
2022-12-08T10:01:43.726Z,49.40
2022-12-08T10:04:17.414Z,49.87
2022-12-08T10:06:46.715Z,47.72
2022-12-08T10:09:23.173Z,49.26
2022-12-08T10:11:53.281Z,48.83
2022-12-08T10:14:23.164Z,49.30
2022-12-08T10:16:52.058Z,48.86
2022-12-08T10:19:20.076Z,47.33
2022-12-08T10:21:46.852Z,47.52
2022-12-08T10:24:22.556Z,46.25
2022-12-08T10:26:49.159Z,46.68
2022-12-08T10:29:15.926Z,45.74
2022-12-08T10:31:42.513Z,43.83
2022-12-08T10:34:17.309Z,43.32
2022-12-08T10:36:47.561Z,45.49
2022-12-08T10:39:32.299Z,44.28
2022-12-08T10:42:07.936Z,42.65
2022-12-08T10:44:38.371Z,41.81
2022-12-08T10:47:11.646Z,42.81
2022-12-08T10:49:38.667Z,41.83
2022-12-08T10:52:08.918Z,44.29
2022-12-08T10:54:41.952Z,45.31
2022-12-08T10:57:19.842Z,43.95
2022-12-08T10:59:46.469Z,42.07
2022-12-08T11:02:18.424Z,42.01
2022-12-08T11:04:45.148Z,42.04
2022-12-08T11:07:11.793Z,43.19
2022-12-08T11:09:40.943Z,43.77
2022-12-08T11:12:08.622Z,43.84
2022-12-08T11:14:46.170Z,45.24
2022-12-08T11:17:14.783Z,45.86
2022-12-08T11:19:43.134Z,45.33
2022-12-08T11:22:20.716Z,45.68
2022-12-08T11:24:56.494Z,46.26
2022-12-08T11:27:23.039Z,45.98
2022-12-08T11:29:49.574Z,45.96
2022-12-08T11:32:16.108Z,47.01
2022-12-08T11:34:45.201Z,47.91
2022-12-08T11:37:17.608Z,48.36
2022-12-08T11:39:47.150Z,46.62
2022-12-08T11:42:16.794Z,46.38
2022-12-08T11:44:46.695Z,45.96
2022-12-08T11:47:15.266Z,45.03
2022-12-08T11:49:42.067Z,44.20
2022-12-08T11:52:17.422Z,44.06
2022-12-08T11:54:47.786Z,44.92
2022-12-08T11:57:16.615Z,45.27
2022-12-08T11:59:46.088Z,45.24
2022-12-08T12:02:14.878Z,44.66
2022-12-08T12:04:44.512Z,45.46
2022-12-08T12:07:33.247Z,43.34
2022-12-08T12:10:14.888Z,41.81
2022-12-08T12:12:51.172Z,43.18
2022-12-08T12:15:25.775Z,43.01
2022-12-08T12:17:53.646Z,43.84
2022-12-08T12:20:23.050Z,44.55
2022-12-08T12:22:51.655Z,45.87
2022-12-08T12:25:19.439Z,45.64
2022-12-08T12:27:49.387Z,46.10
2022-12-08T12:30:19.493Z,45.56
2022-12-08T12:32:48.249Z,44.55
2022-12-08T12:35:16.408Z,44.44
2022-12-08T12:37:43.115Z,44.22
2022-12-08T12:40:16.152Z,42.78
2022-12-08T12:42:43.833Z,42.85
2022-12-08T12:45:23.365Z,43.50
2022-12-08T12:47:55.980Z,42.71
2022-12-08T12:50:41.681Z,43.91
2022-12-08T12:53:36.142Z,41.71
2022-12-08T12:56:04.445Z,41.40
2022-12-08T12:58:38.137Z,42.12
2022-12-08T13:01:28.638Z,41.71
2022-12-08T13:04:03.316Z,42.06
2022-12-08T13:06:33.733Z,42.39
2022-12-08T13:09:00.555Z,43.05
2022-12-08T13:11:28.966Z,43.81
2022-12-08T13:13:56.205Z,44.39
2022-12-08T13:16:24.483Z,44.88
2022-12-08T13:18:52.460Z,45.06
2022-12-08T13:21:22.107Z,46.31
2022-12-08T13:23:49.330Z,46.39
2022-12-08T13:26:17.783Z,47.15
2022-12-08T13:29:06.966Z,47.57
2022-12-08T13:31:42.561Z,47.70
2022-12-08T13:34:16.628Z,47.99
2022-12-08T13:36:47.818Z,47.68
2022-12-08T13:39:19.526Z,48.05
2022-12-08T13:41:49.407Z,47.94
2022-12-08T13:58:28.538Z,49.67
2022-12-08T14:00:57.672Z,49.78
2022-12-08T14:03:27.651Z,50.47
2022-12-08T14:09:02.581Z,50.72
2022-12-08T14:11:34.494Z,51.17
2022-12-08T14:14:02.455Z,51.66
2022-12-08T14:16:32.669Z,51.85
2022-12-08T14:19:05.536Z,52.22
2022-12-08T14:21:36.008Z,52.73
2022-12-08T14:24:03.359Z,52.79
2022-12-08T14:26:32.809Z,53.06
2022-12-08T14:28:59.409Z,53.09
2022-12-08T14:31:27.243Z,53.23
2022-12-08T14:33:56.498Z,53.33
2022-12-08T14:36:24.766Z,53.27
2022-12-08T14:38:54.608Z,53.85
2022-12-08T14:41:26.102Z,53.82
2022-12-08T14:43:58.865Z,53.87
2022-12-08T14:46:25.581Z,53.65
2022-12-08T14:48:53.597Z,53.24
2022-12-08T14:51:23.706Z,53.83
2022-12-08T14:53:55.381Z,54.46
2022-12-08T14:56:23.085Z,54.65
2022-12-08T14:58:51.049Z,54.61
2022-12-08T15:01:21.052Z,55.12
2022-12-08T15:03:51.127Z,54.86
2022-12-08T15:06:20.254Z,55.30
2022-12-08T15:08:55.854Z,55.60
2022-12-08T15:11:40.362Z,55.40
2022-12-08T15:14:22.113Z,55.89
2022-12-08T15:16:48.779Z,55.58
2022-12-08T15:19:17.479Z,55.59
2022-12-08T15:21:45.014Z,55.16
2022-12-08T15:24:13.710Z,55.87
2022-12-08T15:26:43.818Z,55.44
2022-12-08T15:29:11.026Z,55.71
2022-12-08T15:31:37.964Z,55.53
2022-12-08T15:34:04.563Z,55.20
2022-12-08T15:36:31.087Z,55.59
2022-12-08T15:38:57.590Z,55.38
2022-12-08T15:41:25.507Z,56.35
2022-12-08T15:43:52.156Z,56.60
2022-12-08T15:46:18.721Z,56.36
2022-12-08T15:48:45.357Z,57.04
2022-12-08T15:51:11.966Z,56.89
2022-12-08T15:53:38.463Z,56.86
2022-12-08T15:58:56.498Z,57.41
2022-12-08T16:01:24.213Z,57.13
2022-12-08T16:07:19.531Z,57.28
2022-12-08T16:09:27.960Z,57.44
2022-12-08T16:12:13.853Z,57.93
2022-12-08T16:17:31.003Z,58.08
2022-12-08T16:19:57.975Z,57.17
2022-12-08T16:25:19.971Z,57.26
2022-12-08T16:30:36.517Z,58.42
2022-12-08T16:33:03.683Z,58.12
2022-12-08T16:35:30.670Z,57.53
2022-12-08T16:37:57.390Z,57.73
2022-12-08T16:40:23.944Z,57.72
2022-12-08T16:42:50.590Z,58.28
2022-12-08T16:45:18.294Z,58.35
2022-12-08T16:47:46.838Z,58.49
2022-12-08T16:50:15.821Z,58.48
2022-12-08T16:52:42.731Z,58.52
2022-12-08T16:55:10.246Z,58.75
2022-12-08T16:57:36.993Z,58.79
2022-12-08T17:00:05.779Z,59.36
2022-12-08T17:02:32.468Z,59.07
2022-12-08T17:05:00.527Z,59.52
2022-12-08T17:07:27.427Z,59.09
2022-12-08T17:09:54.082Z,59.56
2022-12-08T17:12:20.792Z,59.32
2022-12-08T17:14:47.313Z,59.45
2022-12-08T17:17:14.135Z,60.66
2022-12-08T17:19:40.863Z,61.08
2022-12-08T17:22:08.751Z,61.01
2022-12-08T17:24:35.291Z,60.66
2022-12-08T17:27:06.301Z,60.65
2022-12-08T17:29:33.550Z,61.47
2022-12-08T17:32:00.368Z,61.59
2022-12-08T17:34:26.946Z,61.51
2022-12-08T17:36:53.507Z,61.04
2022-12-08T17:39:21.497Z,60.96
2022-12-08T17:41:48.104Z,61.15
2022-12-08T17:44:16.213Z,60.47
2022-12-08T17:46:48.983Z,60.50
2022-12-08T17:49:19.814Z,61.15
2022-12-08T17:51:47.502Z,61.33
2022-12-08T17:54:14.183Z,61.02
2022-12-08T17:56:42.030Z,61.07
2022-12-08T17:59:08.976Z,60.75
2022-12-08T18:01:35.602Z,60.93
2022-12-08T18:04:03.099Z,61.08
2022-12-08T18:06:31.383Z,61.14
2022-12-08T18:08:58.715Z,61.58
2022-12-08T18:11:25.812Z,61.84
2022-12-08T18:13:54.049Z,61.95
2022-12-08T18:16:21.609Z,62.02
2022-12-08T18:18:48.337Z,62.44
2022-12-08T18:21:21.437Z,62.25
2022-12-08T18:23:49.955Z,62.27
2022-12-08T18:26:16.918Z,62.15
2022-12-08T18:28:43.461Z,61.30
2022-12-08T18:31:12.770Z,61.66
2022-12-08T18:33:40.506Z,61.36
2022-12-08T18:36:08.274Z,61.83
2022-12-08T18:38:34.785Z,62.31
2022-12-08T18:41:03.912Z,62.44
2022-12-08T18:43:30.492Z,61.51
2022-12-08T18:46:00.388Z,61.67
2022-12-08T18:48:28.598Z,61.23
2022-12-08T18:50:55.159Z,61.05
2022-12-08T18:53:21.676Z,61.34
2022-12-08T18:55:50.900Z,61.69
2022-12-08T18:58:17.532Z,61.79
2022-12-08T19:00:44.654Z,61.79
2022-12-08T19:03:11.464Z,61.94
2022-12-08T19:05:39.534Z,61.88
2022-12-08T19:08:06.740Z,61.90
2022-12-08T19:10:34.540Z,61.92
2022-12-08T19:13:01.263Z,61.79
2022-12-08T19:15:27.772Z,61.30
2022-12-08T19:17:54.385Z,61.78
2022-12-08T19:20:20.962Z,61.99
2022-12-08T19:22:49.027Z,61.94
2022-12-08T19:25:15.640Z,62.31
2022-12-08T19:27:42.284Z,62.33
2022-12-08T19:30:09.965Z,62.40
2022-12-08T19:32:36.625Z,62.51
2022-12-08T19:35:07.408Z,62.49
2022-12-08T19:37:34.338Z,62.60
2022-12-08T19:40:20.653Z,62.96
2022-12-08T19:43:06.011Z,63.10
2022-12-08T19:45:35.213Z,63.84
2022-12-08T19:48:01.884Z,63.60
2022-12-08T19:50:37.804Z,63.14
2022-12-08T19:53:05.175Z,63.03
2022-12-08T19:55:33.345Z,63.29
2022-12-08T19:58:01.875Z,63.39
2022-12-08T20:00:29.253Z,63.62
2022-12-08T20:02:55.980Z,63.29
2022-12-08T20:05:22.753Z,62.67
2022-12-08T20:07:49.618Z,62.37
2022-12-08T20:10:17.723Z,62.68
2022-12-08T20:12:45.683Z,62.81
2022-12-08T20:15:12.286Z,63.16
2022-12-08T20:17:38.894Z,63.70
2022-12-08T20:20:07.670Z,63.00
2022-12-08T20:22:34.724Z,63.46
2022-12-08T20:25:01.334Z,63.65
2022-12-08T20:27:28.995Z,63.56
2022-12-08T20:29:56.904Z,63.98
2022-12-08T20:32:23.705Z,63.47
2022-12-08T20:34:50.289Z,62.88
2022-12-08T20:37:17.053Z,63.11
2022-12-08T20:39:43.714Z,63.47
2022-12-08T20:42:12.267Z,63.51
2022-12-08T20:44:43.418Z,63.30
2022-12-08T20:47:12.320Z,64.13
2022-12-08T20:49:38.996Z,64.83
2022-12-08T20:52:05.656Z,64.83
2022-12-08T20:54:32.462Z,64.04
2022-12-08T20:56:59.294Z,64.02
2022-12-08T20:59:26.751Z,63.13
2022-12-08T21:01:53.659Z,62.96
2022-12-08T21:04:23.245Z,63.56
2022-12-08T21:06:50.290Z,63.28
2022-12-08T21:09:17.102Z,63.42
2022-12-08T21:11:43.913Z,63.72
2022-12-08T21:14:10.835Z,63.45
2022-12-08T21:16:37.524Z,63.34
2022-12-08T21:19:04.923Z,63.74
2022-12-08T21:21:32.983Z,63.83
2022-12-08T21:23:59.714Z,63.91
2022-12-08T21:26:26.647Z,64.60
2022-12-08T21:28:57.907Z,64.87
2022-12-08T21:31:26.669Z,65.15
2022-12-08T21:33:55.165Z,64.88
2022-12-08T21:36:22.177Z,65.13
2022-12-08T21:38:50.698Z,65.07
2022-12-08T21:41:37.282Z,65.13
2022-12-08T21:44:04.807Z,64.31
2022-12-08T21:46:31.619Z,64.15
2022-12-08T21:48:58.422Z,64.73
2022-12-08T21:51:25.180Z,64.80
2022-12-08T21:53:53.228Z,64.62
2022-12-08T21:56:19.771Z,65.00
2022-12-08T21:58:46.229Z,64.91
2022-12-08T22:01:13.900Z,64.71
2022-12-08T22:03:41.062Z,64.14
2022-12-08T22:06:08.568Z,64.64
2022-12-08T22:08:35.869Z,64.52
2022-12-08T22:11:04.191Z,64.83
2022-12-08T22:13:33.340Z,65.22
2022-12-08T22:16:01.072Z,65.14
2022-12-08T22:18:27.699Z,65.06
2022-12-08T22:20:54.696Z,65.42
2022-12-08T22:23:21.709Z,64.97
2022-12-08T22:25:55.734Z,65.31
2022-12-08T22:28:23.997Z,65.34
2022-12-08T22:30:50.651Z,65.42
2022-12-08T22:33:17.493Z,65.44
2022-12-08T22:35:44.177Z,65.75
2022-12-08T22:38:10.804Z,65.84
2022-12-08T22:40:39.806Z,65.55
2022-12-08T22:43:06.704Z,65.34
2022-12-08T22:45:35.096Z,65.70
2022-12-08T22:48:01.800Z,65.83
2022-12-08T22:50:28.441Z,65.35
2022-12-08T22:52:55.088Z,65.46
2022-12-08T22:55:21.875Z,65.86
2022-12-08T22:57:48.403Z,65.37
2022-12-08T23:00:15.199Z,65.59
2022-12-08T23:02:43.152Z,65.30
2022-12-08T23:05:10.516Z,65.40
2022-12-08T23:07:37.624Z,65.13
2022-12-08T23:10:07.156Z,65.10
2022-12-08T23:12:33.993Z,65.23
2022-12-08T23:15:00.834Z,65.69
2022-12-08T23:17:27.395Z,65.65
2022-12-08T23:19:55.525Z,65.45
2022-12-08T23:22:22.173Z,65.75
2022-12-08T23:24:48.696Z,65.38
2022-12-08T23:27:15.329Z,65.86
2022-12-08T23:29:41.802Z,65.57
2022-12-08T23:32:08.445Z,65.57
2022-12-08T23:34:35.016Z,65.46
2022-12-08T23:37:03.077Z,65.80
2022-12-08T23:39:29.770Z,65.49
2022-12-08T23:41:56.425Z,65.56
2022-12-08T23:44:22.953Z,65.75
2022-12-08T23:46:49.636Z,65.79
2022-12-08T23:49:16.475Z,65.52
2022-12-08T23:51:43.013Z,65.83
2022-12-08T23:54:10.817Z,65.79
2022-12-08T23:56:37.466Z,65.17
2022-12-08T23:59:04.187Z,65.69
